Time;durP1;ratioP1;P1;durP2;ratioP2;P2;SDS_P1;SDS_P2;PMS_P1;PMS_P2;Temp;Humidity;BMP_temperature;BMP_pressure;BME280_temperature;BME280_humidity;BME280_pressure;Samples;Min_cycle;Max_cycle;Signal;HPM_P1;HPM_P2
2023/01/25 00:01:39;;;;;;;2.95;2.40;;;10.20;64.80;;;;;;5020421;28;20176;-74
2023/01/25 00:04:05;;;;;;;3.13;2.13;;;10.20;64.80;;;;;;5023367;28;20083;-74
2023/01/25 00:06:31;;;;;;;3.25;2.35;;;10.20;64.80;;;;;;5024694;28;20099;-75
2023/01/25 00:08:57;;;;;;;4.28;2.45;;;10.20;64.90;;;;;;5020713;28;20035;-75
2023/01/25 00:11:23;;;;;;;3.38;2.53;;;10.20;64.90;;;;;;5022851;28;20041;-74
2023/01/25 00:13:52;;;;;;;3.67;2.53;;;10.20;64.80;;;;;;5021843;28;20030;-73
2023/01/25 00:16:19;;;;;;;2.95;2.30;;;10.20;64.80;;;;;;5020830;28;20033;-72
2023/01/25 00:18:44;;;;;;;4.15;2.50;;;10.20;64.80;;;;;;5023778;28;20033;-74
2023/01/25 00:21:29;;;;;;;4.18;2.40;;;10.20;64.60;;;;;;5021273;28;20576;-73
2023/01/25 00:23:55;;;;;;;3.05;2.35;;;10.20;64.70;;;;;;5023473;28;20041;-72
2023/01/25 00:26:21;;;;;;;3.10;2.60;;;10.20;64.60;;;;;;5022232;28;20415;-73
2023/01/25 00:28:54;;;;;;;2.92;2.50;;;10.20;64.60;;;;;;5021568;28;20404;-73
2023/01/25 00:31:34;;;;;;;3.72;2.40;;;10.20;64.70;;;;;;5038002;28;20034;-75
2023/01/25 00:34:25;;;;;;;2.40;2.03;;;10.20;64.60;;;;;;5020132;28;20033;-75
2023/01/25 00:37:00;;;;;;;3.70;2.58;;;10.20;64.60;;;;;;5007386;28;20735;-72
2023/01/25 00:39:27;;;;;;;2.83;2.10;;;10.20;64.80;;;;;;5002984;28;20033;-72
2023/01/25 00:41:54;;;;;;;4.20;2.70;;;10.20;64.90;;;;;;5022598;28;20080;-72
2023/01/25 00:44:20;;;;;;;3.00;2.15;;;10.20;65.00;;;;;;5024419;28;20538;-75
2023/01/25 00:46:46;;;;;;;3.30;2.50;;;10.20;65.00;;;;;;5022522;28;20041;-74
2023/01/25 00:49:24;;;;;;;3.63;2.63;;;10.20;64.90;;;;;;5021043;28;20069;-74
2023/01/25 00:51:52;;;;;;;5.13;2.60;;;10.20;64.80;;;;;;5021239;28;20038;-72
2023/01/25 00:54:19;;;;;;;3.22;2.63;;;10.20;64.70;;;;;;5021312;28;20033;-74
2023/01/25 00:56:46;;;;;;;5.38;3.10;;;10.20;64.60;;;;;;5019609;28;20040;-74
2023/01/25 00:59:12;;;;;;;3.35;2.65;;;10.20;64.60;;;;;;5022559;28;20048;-73
2023/01/25 01:01:42;;;;;;;3.40;2.55;;;10.20;64.50;;;;;;5018939;28;20040;-74
2023/01/25 01:04:09;;;;;;;2.90;2.38;;;10.20;64.50;;;;;;5020198;28;20403;-74
2023/01/25 01:06:37;;;;;;;5.03;3.17;;;10.20;64.40;;;;;;5020517;28;20046;-74
2023/01/25 01:09:05;;;;;;;3.45;2.55;;;10.20;64.40;;;;;;5019597;28;20036;-74
2023/01/25 01:11:31;;;;;;;3.28;2.63;;;10.10;64.30;;;;;;5019564;28;20041;-73
2023/01/25 01:13:58;;;;;;;6.75;2.85;;;10.10;64.30;;;;;;5020257;28;20117;-74
2023/01/25 01:16:25;;;;;;;4.35;3.03;;;10.10;64.30;;;;;;5022022;28;20289;-74
2023/01/25 01:18:51;;;;;;;3.45;2.70;;;10.10;64.20;;;;;;5019584;28;20160;-74
2023/01/25 01:21:18;;;;;;;2.63;2.20;;;10.10;64.20;;;;;;5027195;28;20365;-74
2023/01/25 01:23:44;;;;;;;3.45;2.70;;;10.10;64.40;;;;;;5022126;28;20033;-73
2023/01/25 01:26:14;;;;;;;4.57;3.10;;;10.10;64.30;;;;;;5018473;28;20622;-74
2023/01/25 01:28:41;;;;;;;4.32;2.53;;;10.10;64.50;;;;;;5019890;28;20456;-74
2023/01/25 01:31:11;;;;;;;3.92;2.85;;;10.10;64.40;;;;;;5019958;28;20033;-74
2023/01/25 01:33:41;;;;;;;4.68;2.70;;;10.10;64.30;;;;;;5020233;28;20520;-74
2023/01/25 01:36:13;;;;;;;7.20;3.00;;;10.10;64.20;;;;;;5024748;28;20132;-73
2023/01/25 01:38:40;;;;;;;3.13;2.70;;;10.10;64.20;;;;;;5020196;28;20121;-74
2023/01/25 01:41:07;;;;;;;3.38;2.63;;;10.10;64.20;;;;;;5019455;28;20143;-73
2023/01/25 01:43:34;;;;;;;4.43;2.92;;;10.10;64.80;;;;;;5017841;28;20194;-74
2023/01/25 01:46:02;;;;;;;5.03;3.00;;;10.10;64.20;;;;;;5034641;28;20115;-74
2023/01/25 01:48:44;;;;;;;4.30;3.05;;;10.00;64.20;;;;;;5018218;28;20047;-74
2023/01/25 01:51:17;;;;;;;4.30;2.80;;;10.00;64.10;;;;;;5018203;28;20426;-74
2023/01/25 01:53:51;;;;;;;2.42;2.13;;;10.00;64.30;;;;;;5020051;28;20038;-74
2023/01/25 01:56:22;;;;;;;3.15;2.53;;;10.00;64.30;;;;;;5023471;28;20030;-74
2023/01/25 01:58:53;;;;;;;3.65;3.10;;;10.10;64.50;;;;;;5021386;28;20495;-74
2023/01/25 02:01:20;;;;;;;3.28;2.55;;;10.00;64.50;;;;;;5020150;28;20431;-74
2023/01/25 02:03:47;;;;;;;3.42;2.47;;;10.00;64.60;;;;;;5018873;28;20033;-74
2023/01/25 02:06:19;;;;;;;3.28;2.30;;;10.00;64.40;;;;;;5020543;28;20072;-74
2023/01/25 02:08:46;;;;;;;3.15;2.50;;;10.00;64.40;;;;;;5022729;28;20422;-74
2023/01/25 02:11:12;;;;;;;3.00;2.30;;;10.00;64.60;;;;;;5019364;28;20064;-73
2023/01/25 02:13:38;;;;;;;3.85;2.67;;;10.00;64.30;;;;;;5021677;28;20459;-74
2023/01/25 02:16:10;;;;;;;2.83;2.30;;;10.00;64.20;;;;;;5036981;28;20037;-74
2023/01/25 02:18:36;;;;;;;2.78;2.40;;;10.00;64.20;;;;;;5021256;28;20059;-74
2023/01/25 02:21:02;;;;;;;2.55;2.30;;;10.00;64.20;;;;;;5018407;28;20092;-74
2023/01/25 02:23:55;;;;;;;3.97;2.70;;;10.00;64.20;;;;;;5019138;28;20037;-74
2023/01/25 02:26:22;;;;;;;2.80;2.30;;;10.00;64.10;;;;;;5034934;28;20062;-74
2023/01/25 02:29:04;;;;;;;3.22;2.53;;;10.00;64.00;;;;;;5023046;28;20045;-74
2023/01/25 02:31:31;;;;;;;5.15;2.35;;;10.00;64.60;;;;;;5020558;28;20664;-73
2023/01/25 02:33:59;;;;;;;2.67;2.45;;;10.00;64.00;;;;;;5021601;28;20037;-74
2023/01/25 02:36:33;;;;;;;4.57;2.45;;;10.00;63.80;;;;;;5002576;28;20096;-75
2023/01/25 02:39:11;;;;;;;2.47;2.28;;;10.00;63.90;;;;;;5017370;28;20041;-74
2023/01/25 02:41:42;;;;;;;2.65;2.20;;;10.00;64.30;;;;;;5022776;28;20033;-74
2023/01/25 02:44:13;;;;;;;2.92;2.30;;;10.00;64.00;;;;;;5019603;28;20033;-74
2023/01/25 02:46:42;;;;;;;3.22;2.60;;;10.00;64.00;;;;;;5012016;28;20037;-74
2023/01/25 02:49:10;;;;;;;5.45;2.70;;;10.00;63.80;;;;;;5011772;28;20033;-74
2023/01/25 02:51:40;;;;;;;4.50;2.70;;;10.00;63.70;;;;;;5026745;28;20436;-74
2023/01/25 02:54:08;;;;;;;4.45;2.90;;;10.00;63.70;;;;;;5023139;28;20116;-75
2023/01/25 02:56:35;;;;;;;3.30;2.40;;;10.00;63.70;;;;;;5023337;28;20037;-73
2023/01/25 02:59:04;;;;;;;3.20;2.22;;;10.00;63.60;;;;;;5022430;28;20037;-74
2023/01/25 03:01:33;;;;;;;3.28;2.25;;;10.00;63.60;;;;;;5022657;28;20041;-75
2023/01/25 03:03:59;;;;;;;3.83;3.03;;;10.00;63.60;;;;;;5021917;28;20073;-74
2023/01/25 03:06:26;;;;;;;3.60;2.10;;;10.00;63.60;;;;;;5022174;28;20098;-75
2023/01/25 03:08:52;;;;;;;3.42;2.50;;;10.00;63.50;;;;;;5021502;28;20034;-74
2023/01/25 03:11:19;;;;;;;2.80;2.25;;;10.00;63.60;;;;;;5022660;28;20030;-74
2023/01/25 03:13:45;;;;;;;3.85;2.78;;;10.00;63.80;;;;;;5023562;28;20030;-75
2023/01/25 03:16:12;;;;;;;3.47;3.03;;;10.00;63.80;;;;;;5022222;28;20034;-74
2023/01/25 03:18:41;;;;;;;3.40;2.65;;;10.00;64.00;;;;;;5023333;28;20548;-75
2023/01/25 03:21:13;;;;;;;3.03;2.65;;;10.00;64.00;;;;;;5024532;28;20034;-74
2023/01/25 03:23:40;;;;;;;3.50;2.40;;;10.00;64.00;;;;;;5023919;28;20033;-73
2023/01/25 03:26:14;;;;;;;3.22;2.83;;;10.00;63.90;;;;;;5024877;28;20443;-76
2023/01/25 03:28:55;;;;;;;2.92;2.60;;;10.00;63.80;;;;;;5037923;28;20172;-75
2023/01/25 03:31:21;;;;;;;3.80;2.92;;;10.00;63.80;;;;;;5022761;28;20033;-77
2023/01/25 03:33:48;;;;;;;4.93;2.50;;;10.00;63.70;;;;;;5022713;28;20112;-78
2023/01/25 03:36:14;;;;;;;3.10;2.60;;;10.00;63.70;;;;;;5025875;28;20667;-79
2023/01/25 03:38:41;;;;;;;4.10;2.88;;;10.00;63.70;;;;;;5004601;28;20053;-81
2023/01/25 03:41:08;;;;;;;3.75;2.40;;;10.00;63.70;;;;;;5040408;28;20045;-78
2023/01/25 03:43:34;;;;;;;5.68;2.90;;;10.00;63.60;;;;;;5022349;28;20050;-79
2023/01/25 03:46:01;;;;;;;3.70;3.13;;;9.90;63.50;;;;;;5025431;28;20061;-78
2023/01/25 03:48:29;;;;;;;3.47;2.70;;;9.90;63.40;;;;;;5026573;28;20080;-77
2023/01/25 03:50:58;;;;;;;2.83;2.60;;;10.00;63.50;;;;;;5021570;28;20138;-79
2023/01/25 03:53:29;;;;;;;3.47;2.92;;;9.90;63.50;;;;;;5038453;28;20471;-78
2023/01/25 03:56:08;;;;;;;4.13;2.97;;;9.90;63.40;;;;;;5021718;28;20084;-76
2023/01/25 03:58:37;;;;;;;3.92;3.10;;;10.00;63.60;;;;;;5021405;28;20093;-77
2023/01/25 04:01:05;;;;;;;5.47;3.20;;;9.90;63.60;;;;;;5022762;28;20059;-78
2023/01/25 04:03:32;;;;;;;4.00;2.78;;;9.90;63.60;;;;;;5026131;28;20034;-78
2023/01/25 04:05:59;;;;;;;3.28;2.72;;;9.90;63.60;;;;;;5023282;28;20046;-78
2023/01/25 04:08:27;;;;;;;3.67;3.28;;;9.90;63.60;;;;;;5025013;28;20172;-79
2023/01/25 04:10:55;;;;;;;3.38;2.85;;;9.90;63.60;;;;;;5020894;28;20408;-77
2023/01/25 04:13:23;;;;;;;5.05;3.30;;;10.00;63.60;;;;;;5020670;28;20091;-77
2023/01/25 04:15:50;;;;;;;5.35;2.90;;;9.90;63.60;;;;;;5025415;28;20022;-76
2023/01/25 04:18:35;;;;;;;4.70;2.97;;;10.00;63.70;;;;;;5008450;28;20161;-76
2023/01/25 04:21:01;;;;;;;4.05;2.90;;;10.00;63.70;;;;;;5021250;28;20044;-77
2023/01/25 04:23:27;;;;;;;2.72;2.53;;;10.00;63.80;;;;;;5019984;28;20099;-76
2023/01/25 04:25:55;;;;;;;4.05;2.67;;;9.90;63.80;;;;;;5023835;28;20065;-76
2023/01/25 04:28:21;;;;;;;3.13;2.65;;;9.90;63.80;;;;;;5037883;28;20049;-76
2023/01/25 04:30:48;;;;;;;4.78;2.85;;;9.90;63.90;;;;;;5021762;28;20158;-77
2023/01/25 04:33:14;;;;;;;4.00;2.80;;;9.90;64.00;;;;;;5022434;28;20042;-77
2023/01/25 04:35:42;;;;;;;2.95;2.40;;;10.00;64.20;;;;;;5022954;28;20034;-85
2023/01/25 04:38:09;;;;;;;3.85;2.60;;;10.00;64.30;;;;;;5022606;28;20546;-82
2023/01/25 04:40:39;;;;;;;3.15;2.80;;;10.00;64.30;;;;;;5020305;28;20500;-79
2023/01/25 04:43:05;;;;;;;4.75;3.22;;;10.00;64.20;;;;;;5020323;28;20041;-79
2023/01/25 04:45:32;;;;;;;4.28;3.00;;;10.00;64.20;;;;;;5028513;28;20060;-83
2023/01/25 04:48:03;;;;;;;3.95;2.90;;;10.00;64.30;;;;;;5010541;28;20038;-80
2023/01/25 04:50:30;;;;;;;3.63;2.88;;;10.00;64.40;;;;;;5041534;28;20057;-84
2023/01/25 04:52:58;;;;;;;2.95;2.65;;;10.00;64.50;;;;;;5010636;28;20064;-87
2023/01/25 04:55:24;;;;;;;4.03;3.42;;;10.00;64.60;;;;;;5017481;28;20595;-81
2023/01/25 04:57:52;;;;;;;4.10;3.17;;;10.00;64.70;;;;;;5018941;28;20032;-79
2023/01/25 05:00:19;;;;;;;6.57;3.28;;;10.00;64.80;;;;;;5020730;28;20037;-79
2023/01/25 05:02:45;;;;;;;5.20;3.17;;;10.00;64.90;;;;;;5004791;28;20107;-77
2023/01/25 05:05:12;;;;;;;4.88;3.22;;;10.00;65.00;;;;;;5021848;28;20045;-79
2023/01/25 05:07:38;;;;;;;3.63;3.20;;;10.00;65.10;;;;;;5020769;28;20068;-79
2023/01/25 05:10:06;;;;;;;6.00;3.38;;;10.00;65.30;;;;;;5019715;28;20483;-83
2023/01/25 05:12:32;;;;;;;5.70;3.35;;;10.00;65.30;;;;;;5021557;28;20091;-82
2023/01/25 05:15:02;;;;;;;4.45;3.10;;;10.00;65.50;;;;;;5017499;28;20041;-80
2023/01/25 05:17:28;;;;;;;5.50;3.65;;;10.00;65.40;;;;;;5019454;28;20099;-79
2023/01/25 05:19:54;;;;;;;5.22;3.80;;;10.00;65.40;;;;;;5019607;28;20563;-81
2023/01/25 05:22:22;;;;;;;5.68;3.22;;;10.00;65.40;;;;;;5017811;28;20037;-80
2023/01/25 05:24:51;;;;;;;4.65;3.35;;;10.00;65.30;;;;;;5020409;28;20037;-80
2023/01/25 05:27:19;;;;;;;6.10;3.80;;;10.00;65.30;;;;;;5020454;28;20076;-80
2023/01/25 05:29:55;;;;;;;5.28;3.33;;;10.00;65.20;;;;;;5020276;28;20075;-81
2023/01/25 05:32:29;;;;;;;3.83;2.87;;;10.00;65.20;;;;;;5005264;28;20315;-80
2023/01/25 05:34:55;;;;;;;3.42;2.85;;;10.00;65.10;;;;;;5035434;28;20416;-78
2023/01/25 05:37:21;;;;;;;5.10;3.22;;;10.00;65.10;;;;;;5024683;28;20037;-81
2023/01/25 05:39:55;;;;;;;4.50;3.30;;;10.00;65.00;;;;;;5014511;28;20029;-80
2023/01/25 05:42:21;;;;;;;4.45;3.00;;;10.00;65.00;;;;;;5023351;28;20056;-81
2023/01/25 05:44:47;;;;;;;3.58;2.85;;;10.00;64.90;;;;;;5020100;28;20076;-79
2023/01/25 05:47:15;;;;;;;4.40;2.90;;;10.00;64.80;;;;;;5036234;28;20391;-82
2023/01/25 05:49:42;;;;;;;5.45;3.08;;;10.00;64.90;;;;;;5017414;28;20120;-82
2023/01/25 05:52:15;;;;;;;4.50;2.78;;;10.00;67.00;;;;;;5018172;28;20444;-77
2023/01/25 05:54:42;;;;;;;7.13;3.00;;;10.00;69.50;;;;;;5006449;28;20091;-78
2023/01/25 05:57:13;;;;;;;5.80;3.05;;;10.10;70.70;;;;;;5020174;28;20448;-79
2023/01/25 05:59:39;;;;;;;4.50;3.05;;;10.20;71.30;;;;;;5018148;28;20061;-79
2023/01/25 06:02:07;;;;;;;5.38;3.75;;;10.30;71.70;;;;;;5003270;28;21491;-79
2023/01/25 06:04:33;;;;;;;4.63;3.28;;;10.30;70.70;;;;;;5018710;28;20045;-81
2023/01/25 06:07:00;;;;;;;4.50;3.72;;;10.40;70.90;;;;;;5031308;28;20080;-80
2023/01/25 06:09:26;;;;;;;3.75;3.30;;;10.50;70.60;;;;;;5021063;28;20037;-82
2023/01/25 06:11:52;;;;;;;4.72;3.80;;;10.60;68.60;;;;;;5016101;28;20034;-81
2023/01/25 06:14:22;;;;;;;6.65;4.05;;;10.60;67.50;;;;;;5014712;28;20034;-81
2023/01/25 06:16:48;;;;;;;4.85;3.67;;;10.50;66.60;;;;;;5021433;28;20482;-79
2023/01/25 06:19:46;;;;;;;7.95;4.10;;;10.60;66.10;;;;;;5003759;28;20183;-82
2023/01/25 06:22:35;;;;;;;5.00;3.78;;;10.60;65.40;;;;;;5025064;28;20512;-80
2023/01/25 06:25:01;;;;;;;5.88;3.80;;;10.50;65.00;;;;;;5018381;28;20522;-83
2023/01/25 06:27:27;;;;;;;4.93;3.70;;;10.50;64.80;;;;;;5020677;28;20049;-81
2023/01/25 06:29:53;;;;;;;5.30;3.88;;;10.50;64.60;;;;;;5017978;28;20486;-83
2023/01/25 06:32:19;;;;;;;4.63;4.00;;;10.50;64.50;;;;;;5020411;28;20045;-78
2023/01/25 06:34:45;;;;;;;5.47;3.70;;;10.50;64.30;;;;;;5017776;28;20037;-81
2023/01/25 06:37:19;;;;;;;5.47;3.90;;;10.40;64.20;;;;;;5016384;28;20037;-80
2023/01/25 06:39:44;;;;;;;4.35;3.40;;;10.40;64.00;;;;;;5018016;28;20116;-80
2023/01/25 06:42:10;;;;;;;5.50;4.10;;;10.50;64.00;;;;;;5016852;28;20595;-81
2023/01/25 06:44:36;;;;;;;4.97;4.03;;;10.40;63.90;;;;;;5016187;28;20078;-80
2023/01/25 06:47:02;;;;;;;6.05;4.22;;;10.40;63.80;;;;;;5016151;28;20319;-80
2023/01/25 06:49:28;;;;;;;4.55;3.55;;;10.40;63.80;;;;;;5016042;28;20326;-76
2023/01/25 06:51:54;;;;;;;5.20;3.88;;;10.40;63.70;;;;;;5017922;28;20387;-80
2023/01/25 06:54:21;;;;;;;5.72;4.03;;;10.40;63.60;;;;;;5018090;28;20087;-80
2023/01/25 06:56:47;;;;;;;6.63;3.90;;;10.40;63.60;;;;;;5019506;28;20504;-83
2023/01/25 06:59:14;;;;;;;4.53;3.53;;;10.40;63.50;;;;;;5016739;28;20396;-81
2023/01/25 07:01:40;;;;;;;6.30;3.65;;;10.40;63.50;;;;;;5017935;28;20038;-79
2023/01/25 07:04:10;;;;;;;4.25;3.65;;;10.40;63.50;;;;;;5017994;28;20723;-81
2023/01/25 07:06:37;;;;;;;6.03;4.07;;;10.30;63.40;;;;;;5016108;28;20026;-81
2023/01/25 07:09:13;;;;;;;4.22;3.40;;;10.40;63.40;;;;;;5032258;28;20065;-80
2023/01/25 07:11:39;;;;;;;6.10;3.88;;;10.40;63.40;;;;;;5016503;28;20040;-82
2023/01/25 07:14:05;;;;;;;4.75;3.47;;;10.30;63.30;;;;;;5017392;28;20547;-80
2023/01/25 07:16:35;;;;;;;4.47;3.35;;;10.30;63.30;;;;;;5016808;28;20037;-78
2023/01/25 07:19:12;;;;;;;4.60;3.83;;;10.30;63.20;;;;;;5032516;28;20131;-81
2023/01/25 07:21:38;;;;;;;4.10;3.28;;;10.30;63.10;;;;;;5014689;28;20041;-79
2023/01/25 07:24:04;;;;;;;4.32;3.25;;;10.30;63.00;;;;;;5017413;28;20044;-79
2023/01/25 07:26:31;;;;;;;3.40;3.10;;;10.30;63.00;;;;;;5018029;28;20081;-80
2023/01/25 07:28:58;;;;;;;12.15;6.35;;;10.30;62.90;;;;;;5014870;28;20038;-80
2023/01/25 07:31:25;;;;;;;12.10;7.05;;;10.30;62.80;;;;;;5034923;28;20049;-81
2023/01/25 07:33:53;;;;;;;7.60;5.43;;;10.30;62.70;;;;;;5021761;28;20025;-83
2023/01/25 07:36:21;;;;;;;6.93;4.72;;;10.30;62.70;;;;;;5018215;28;20038;-82
2023/01/25 07:38:47;;;;;;;6.50;4.50;;;10.30;62.70;;;;;;5019704;28;20456;-81
2023/01/25 07:41:15;;;;;;;6.00;4.13;;;10.30;62.60;;;;;;5021090;28;20038;-82
2023/01/25 07:43:41;;;;;;;4.75;3.58;;;10.30;62.60;;;;;;5018854;28;20037;-80
2023/01/25 07:46:11;;;;;;;5.82;3.80;;;10.30;62.50;;;;;;5017851;28;20091;-80
2023/01/25 07:48:38;;;;;;;4.50;3.67;;;10.30;62.50;;;;;;5021482;28;20038;-81
2023/01/25 07:51:22;;;;;;;5.25;3.95;;;10.30;62.40;;;;;;5018933;28;20033;-79
2023/01/25 07:54:02;;;;;;;6.68;3.67;;;10.30;62.30;;;;;;5037353;28;20144;-77
2023/01/25 07:56:39;;;;;;;5.03;3.92;;;10.30;62.40;;;;;;5019203;28;20605;-78
2023/01/25 07:59:08;;;;;;;4.03;3.55;;;10.30;62.40;;;;;;5019515;28;20506;-80
2023/01/25 08:01:35;;;;;;;4.93;3.35;;;10.30;62.30;;;;;;5021005;28;20041;-78
2023/01/25 08:04:03;;;;;;;4.95;3.33;;;10.30;62.30;;;;;;5017222;28;20033;-79
2023/01/25 08:06:37;;;;;;;3.58;3.10;;;10.30;62.30;;;;;;5019979;28;20130;-79
2023/01/25 08:09:12;;;;;;;4.68;4.00;;;10.30;62.30;;;;;;5018357;28;20033;-81
2023/01/25 08:11:40;;;;;;;5.30;3.65;;;10.30;62.20;;;;;;5020127;28;20033;-78
2023/01/25 08:14:07;;;;;;;6.13;3.65;;;10.30;62.30;;;;;;5020197;28;20036;-81
2023/01/25 08:16:33;;;;;;;5.05;4.03;;;10.30;62.30;;;;;;5018855;28;20031;-81
2023/01/25 08:19:00;;;;;;;4.57;3.65;;;10.20;62.30;;;;;;5019999;28;20034;-81
2023/01/25 08:21:31;;;;;;;4.18;3.53;;;10.30;62.20;;;;;;5034134;28;20041;-77
2023/01/25 08:24:01;;;;;;;11.63;3.50;;;10.30;62.20;;;;;;5019026;28;20057;-76
2023/01/25 08:26:27;;;;;;;5.15;3.53;;;10.30;62.20;;;;;;5016782;28;20057;-79
2023/01/25 08:28:53;;;;;;;4.45;3.20;;;10.30;62.30;;;;;;5019754;28;20042;-78
2023/01/25 08:31:22;;;;;;;4.97;3.70;;;10.30;62.30;;;;;;5017533;28;20030;-78
2023/01/25 08:33:50;;;;;;;5.32;3.95;;;10.30;62.40;;;;;;5018725;28;20443;-76
2023/01/25 08:36:17;;;;;;;3.88;3.20;;;10.30;62.50;;;;;;5001441;28;20124;-88
2023/01/25 08:38:47;;;;;;;5.10;3.67;;;10.30;62.50;;;;;;5015733;28;20042;-82
2023/01/25 08:41:15;;;;;;;5.20;3.75;;;10.30;62.50;;;;;;5021293;28;20075;-85
2023/01/25 08:43:42;;;;;;;7.45;3.70;;;10.30;62.40;;;;;;5019175;28;20041;-86
2023/01/25 08:46:09;;;;;;;5.97;3.65;;;10.30;62.30;;;;;;5018641;28;20092;-81
2023/01/25 08:48:35;;;;;;;3.60;3.22;;;10.30;62.20;;;;;;5021288;28;20087;-83
2023/01/25 08:51:01;;;;;;;5.63;3.85;;;10.30;62.20;;;;;;5020354;28;20030;-80
2023/01/25 08:53:30;;;;;;;4.90;3.17;;;10.30;62.30;;;;;;5019560;28;20084;-83
2023/01/25 08:55:56;;;;;;;3.65;3.30;;;10.30;62.30;;;;;;5036010;28;20096;-87
2023/01/25 08:58:21;;;;;;;7.13;3.53;;;10.30;62.30;;;;;;5035804;28;20025;-87
2023/01/25 09:00:48;;;;;;;4.40;3.45;;;10.30;62.20;;;;;;5019651;28;20029;-87
2023/01/25 09:03:16;;;;;;;5.32;3.90;;;10.30;62.30;;;;;;5017677;28;20492;-86
2023/01/25 09:05:42;;;;;;;5.30;4.32;;;10.30;62.20;;;;;;5019793;28;20041;-86
2023/01/25 09:08:10;;;;;;;5.03;3.53;;;10.30;62.30;;;;;;5020036;28;20036;-79
2023/01/25 09:10:36;;;;;;;4.28;3.70;;;10.30;62.30;;;;;;5020089;28;20041;-81
2023/01/25 09:13:02;;;;;;;5.72;3.80;;;10.30;62.40;;;;;;5017764;28;20112;-85
2023/01/25 09:15:28;;;;;;;4.30;3.70;;;10.30;62.30;;;;;;5020845;28;20238;-79
2023/01/25 09:17:55;;;;;;;5.50;3.67;;;10.30;62.20;;;;;;5019771;28;20117;-88
2023/01/25 09:20:22;;;;;;;5.43;3.60;;;10.30;62.10;;;;;;5039488;28;20033;-87
2023/01/25 09:22:48;;;;;;;4.72;3.55;;;10.30;62.10;;;;;;5021075;28;20873;-83
2023/01/25 09:25:14;;;;;;;5.25;3.35;;;10.30;62.10;;;;;;5017569;28;20034;-88
2023/01/25 09:27:41;;;;;;;7.18;3.60;;;10.30;62.10;;;;;;5021212;28;20132;-85
2023/01/25 09:30:09;;;;;;;3.92;3.10;;;10.30;62.10;;;;;;5009807;28;20044;-82
2023/01/25 09:32:37;;;;;;;4.35;3.60;;;10.30;62.50;;;;;;5024878;28;20100;-82
2023/01/25 09:35:04;;;;;;;5.85;3.22;;;10.30;62.10;;;;;;5016506;28;20031;-83
2023/01/25 09:37:30;;;;;;;4.07;2.92;;;10.30;62.20;;;;;;5001984;28;20049;-78
2023/01/25 09:39:56;;;;;;;3.72;3.10;;;10.30;62.20;;;;;;5015959;28;20116;-80
2023/01/25 09:42:56;;;;;;;3.28;2.90;;;10.30;62.20;;;;;;5018271;28;20515;-84
2023/01/25 09:45:35;;;;;;;4.03;3.05;;;10.30;62.30;;;;;;5018424;28;20041;-82
2023/01/25 09:48:33;;;;;;;3.30;3.00;;;10.30;62.10;;;;;;5017165;28;20455;-83
2023/01/25 09:51:28;;;;;;;4.38;3.15;;;10.30;62.20;;;;;;5019920;28;20033;-81
2023/01/25 09:53:56;;;;;;;3.35;3.03;;;10.30;62.10;;;;;;5019233;28;20034;-84
2023/01/25 09:56:31;;;;;;;5.32;3.45;;;10.30;62.10;;;;;;4988145;28;20590;-83
2023/01/25 09:59:03;;;;;;;4.35;3.33;;;10.30;62.00;;;;;;4998698;28;20033;-84
2023/01/25 10:01:49;;;;;;;8.02;3.88;;;10.30;62.10;;;;;;5018024;28;20185;-80
2023/01/25 10:04:20;;;;;;;;;;;10.30;62.00;;;;;;5019801;28;20191;-83
2023/01/25 10:06:51;;;;;;;4.22;3.28;;;10.30;62.10;;;;;;5019678;28;19913;-84
2023/01/25 10:09:22;;;;;;;5.25;4.00;;;10.30;61.90;;;;;;5020133;28;20049;-82
2023/01/25 10:11:48;;;;;;;4.57;3.70;;;10.30;61.90;;;;;;5034364;28;20037;-81
2023/01/25 10:14:17;;;;;;;6.07;4.18;;;10.30;61.90;;;;;;5021287;28;20435;-84
2023/01/25 10:16:45;;;;;;;6.35;4.13;;;10.30;62.00;;;;;;5021620;28;20041;-83
2023/01/25 10:19:39;;;;;;;6.80;4.00;;;10.30;61.90;;;;;;5024344;28;20549;-85
2023/01/25 10:22:16;;;;;;;5.60;4.03;;;10.20;61.90;;;;;;5036423;28;20546;-84
2023/01/25 10:25:12;;;;;;;5.78;3.80;;;10.20;61.80;;;;;;5017816;28;20057;-85
2023/01/25 10:27:52;;;;;;;4.40;4.00;;;10.20;61.80;;;;;;5010717;28;20042;-86
2023/01/25 10:30:21;;;;;;;4.40;4.00;;;10.30;61.70;;;;;;5019422;28;20132;-86
2023/01/25 10:32:48;;;;;;;3.85;3.42;;;10.20;61.60;;;;;;5020997;28;20128;-84
2023/01/25 10:35:16;;;;;;;6.03;3.80;;;10.20;61.40;;;;;;5033669;28;20040;-82
2023/01/25 10:37:43;;;;;;;4.35;3.50;;;10.20;61.50;;;;;;5018904;28;20033;-84
2023/01/25 10:40:23;;;;;;;4.82;3.55;;;10.20;61.40;;;;;;5023903;28;20038;-83
2023/01/25 10:43:05;;;;;;;5.53;3.83;;;10.20;61.30;;;;;;5019067;28;20037;-79
2023/01/25 10:45:31;;;;;;;4.45;3.47;;;10.20;61.40;;;;;;5021805;28;20119;-85
2023/01/25 10:48:02;;;;;;;8.13;5.72;;;10.20;61.50;;;;;;5023839;28;20029;-82
2023/01/25 10:50:53;;;;;;;8.07;5.20;;;10.20;61.40;;;;;;5045744;28;20052;-81
2023/01/25 10:53:35;;;;;;;5.35;4.30;;;10.20;61.60;;;;;;5018044;28;20045;-84
2023/01/25 10:56:10;;;;;;;6.38;4.45;;;10.20;61.50;;;;;;5022509;28;20048;-84
2023/01/25 10:58:39;;;;;;;4.82;4.00;;;10.20;61.50;;;;;;5017873;28;20045;-82
2023/01/25 11:01:12;;;;;;;4.68;3.85;;;10.20;61.50;;;;;;5020492;28;20037;-84
2023/01/25 11:03:43;;;;;;;6.20;4.03;;;10.20;61.60;;;;;;5019117;28;20133;-84
2023/01/25 11:06:09;;;;;;;6.47;4.10;;;10.20;61.60;;;;;;5027227;28;20037;-78
2023/01/25 11:08:41;;;;;;;4.40;3.30;;;10.20;61.50;;;;;;5021956;28;20069;-85
2023/01/25 11:11:26;;;;;;;4.43;3.72;;;10.10;61.40;;;;;;5020325;28;20463;-83
2023/01/25 11:13:56;;;;;;;6.03;3.72;;;10.10;61.40;;;;;;5028562;28;20040;-86
2023/01/25 11:16:37;;;;;;;4.38;3.78;;;10.10;61.30;;;;;;5022775;28;20180;-82
2023/01/25 11:19:27;;;;;;;5.95;4.20;;;10.10;61.30;;;;;;5021170;28;20064;-85
2023/01/25 11:21:56;;;;;;;4.55;3.80;;;10.10;61.40;;;;;;5021675;28;20049;-84
2023/01/25 11:24:29;;;;;;;6.32;3.95;;;10.10;61.30;;;;;;5022285;28;20049;-85
2023/01/25 11:27:18;;;;;;;7.13;4.05;;;10.10;61.20;;;;;;5007516;28;20068;-87
2023/01/25 11:30:05;;;;;;;4.45;3.65;;;10.10;61.40;;;;;;5019781;28;20037;-88
2023/01/25 11:32:32;;;;;;;4.68;3.80;;;10.10;61.40;;;;;;5021920;28;20033;-84
2023/01/25 11:34:58;;;;;;;6.35;4.10;;;10.10;61.30;;;;;;5022339;28;20030;-88
2023/01/25 11:37:49;;;;;;;5.45;4.10;;;10.10;61.30;;;;;;5023406;28;20030;-92
2023/01/25 11:40:27;;;;;;;5.55;3.85;;;10.10;61.30;;;;;;5020201;28;20496;-83
2023/01/25 11:43:37;;;;;;;5.75;4.00;;;10.10;61.30;;;;;;5036078;28;20124;-82
2023/01/25 11:46:07;;;;;;;6.50;4.18;;;10.10;61.20;;;;;;5036762;28;20124;-84
2023/01/25 11:49:24;;;;;;;9.15;3.90;;;10.10;61.10;;;;;;5020101;28;20030;-84
2023/01/25 11:52:05;;;;;;;6.38;3.95;;;10.00;61.00;;;;;;4924260;29;20656;-83
2023/01/25 11:54:36;;;;;;;6.07;3.85;;;10.10;61.00;;;;;;4940700;29;20070;-86
2023/01/25 11:57:23;;;;;;;6.78;4.40;;;10.00;60.90;;;;;;4939024;29;20043;-86
2023/01/25 12:00:15;;;;;;;5.53;3.97;;;10.00;60.90;;;;;;4938817;29;20039;-80
2023/01/25 12:03:12;;;;;;;5.10;3.70;;;10.00;60.80;;;;;;4941087;29;20239;-85
2023/01/25 12:05:59;;;;;;;5.55;3.75;;;10.00;60.70;;;;;;4926137;29;20526;-84
2023/01/25 12:08:36;;;;;;;4.85;3.30;;;10.00;60.60;;;;;;4964960;28;20099;-85
2023/01/25 12:11:14;;;;;;;5.20;3.90;;;10.00;60.60;;;;;;4914576;29;20506;-86
2023/01/25 12:14:15;;;;;;;5.45;3.70;;;10.10;60.80;;;;;;4928355;29;20046;-82
2023/01/25 12:17:08;;;;;;;4.30;3.40;;;10.10;60.80;;;;;;4940865;28;20760;-85
2023/01/25 12:19:41;;;;;;;5.22;3.72;;;10.10;60.80;;;;;;4938944;28;20043;-85
2023/01/25 12:22:19;;;;;;;6.05;4.50;;;10.00;60.60;;;;;;4942003;29;20027;-85
2023/01/25 12:25:17;;;;;;;7.25;4.20;;;10.10;60.60;;;;;;4945835;28;20146;-84
2023/01/25 12:28:09;;;;;;;6.10;4.20;;;10.10;60.50;;;;;;5021738;28;20397;-83
2023/01/25 12:30:53;;;;;;;5.60;4.22;;;10.00;60.40;;;;;;5019469;28;20187;-83
2023/01/25 12:34:11;;;;;;;6.20;4.45;;;10.10;60.40;;;;;;5018940;28;20030;-82
2023/01/25 12:36:43;;;;;;;7.80;4.45;;;10.00;60.20;;;;;;4949584;28;20035;-84
2023/01/25 12:39:32;;;;;;;5.70;4.30;;;10.00;60.00;;;;;;4938315;28;20577;-81
2023/01/25 12:43:00;;;;;;;6.30;4.22;;;10.00;60.00;;;;;;4938198;28;20051;-86
2023/01/25 12:45:37;;;;;;;6.63;4.00;;;10.00;60.20;;;;;;4900801;29;20036;-82
2023/01/25 12:48:20;;;;;;;5.70;3.95;;;10.00;60.10;;;;;;4901768;29;20119;-83
2023/01/25 12:50:57;;;;;;;6.47;4.18;;;10.00;60.00;;;;;;4899630;29;20032;-82
2023/01/25 12:53:32;;;;;;;10.07;4.38;;;10.00;60.00;;;;;;4887566;29;20033;-83
2023/01/25 12:55:59;;;;;;;7.00;4.37;;;10.00;60.00;;;;;;4901271;29;20044;-82
2023/01/25 12:58:46;;;;;;;6.90;4.30;;;10.00;59.90;;;;;;4899460;29;20065;-82
2023/01/25 13:01:39;;;;;;;6.43;4.20;;;10.00;59.90;;;;;;4900856;29;20463;-82
2023/01/25 13:04:45;;;;;;;8.30;4.57;;;10.00;59.80;;;;;;4898836;29;20463;-82
2023/01/25 13:07:25;;;;;;;7.78;4.88;;;10.00;59.70;;;;;;4892933;29;20048;-82
2023/01/25 13:09:51;;;;;;;6.80;4.95;;;10.00;59.60;;;;;;4901828;29;20258;-80
2023/01/25 13:12:17;;;;;;;8.55;3.92;;;10.00;59.60;;;;;;4884002;29;20589;-81